Amy C. Mc Allister — WCZ9520 — position and weather

sailwx.info

Track history (hours):
 
Tides and Currents Weather Stations Pressure Air Temp Water Temp Dewpoint Dewpoint Depression Visibility Wind Speed Wind Dir Waves Ship Positions

Amy C. Mc Allister

Owner: MC ALLISTER TOWING & TRANSPORTATION INC, NEW YORK, NY. More information available from US FCC via Universal Licensing System and Coast Guard Vessel Documentation Center.

Last reported at 2016-Oct-01 15:33 UTC. Time now 2016-Oct-01 18:56 UTC.
Position N 40°40' W 074°09'.

; draft 4.9 m.

Type: Towing. MMSI: 366995040.

Date/timePositionNaut miles runAvg speedWind from/ knotsBaromVisibWave heightAir tempDewpointWater temp
2016-Oct-01 15:33N 40°40' W 074°09'0 0.0
2016-Oct-01 14:33N 40°40' W 074°09'3 2.8
2016-Oct-01 13:33N 40°38' W 074°12'2 0.2
2016-Oct-01 04:33N 40°38' W 074°10'0 0.0
2016-Oct-01 03:33N 40°38' W 074°10'0 0.0
2016-Oct-01 00:33N 40°38' W 074°10'0 0.0
2016-Sep-30 22:33N 40°38' W 074°10'0 0.0
2016-Sep-30 17:33N 40°38' W 074°10'0 0.0
2016-Sep-30 16:33N 40°38' W 074°10'3 1.4
2016-Sep-30 14:29N 40°36' W 074°12'2 1.8
2016-Sep-30 13:29N 40°38' W 074°12'6 2.2
2016-Sep-30 10:33N 40°40' W 074°04'0 0.0
2016-Sep-30 08:33N 40°40' W 074°04'0 0.0
2016-Sep-30 06:34N 40°40' W 074°04'0 0.0
2016-Sep-30 03:33N 40°40' W 074°04'0 0.0
2016-Sep-30 02:34N 40°40' W 074°04'0 0.1
2016-Sep-29 23:33N 40°40' W 074°05'5 2.6
2016-Sep-29 21:32N 40°38' W 074°11'2 2.1
2016-Sep-29 20:32N 40°39' W 074°09'0 0.1
2016-Sep-29 19:33N 40°39' W 074°09'1 0.4
2016-Sep-29 16:33N 40°38' W 074°10'0 0.0
2016-Sep-29 15:33N 40°38' W 074°10'0 0.0
2016-Sep-29 14:33N 40°38' W 074°10'0 0.0
2016-Sep-29 13:33N 40°38' W 074°10'5 1.0
2016-Sep-29 08:11N 40°34' W 074°13'3 4.7
2016-Sep-29 07:33N 40°37' W 074°12'7 1.1
2016-Sep-29 00:33N 40°39' W 074°03'0 0.1
2016-Sep-28 21:33N 40°40' W 074°04'10 4.8
2016-Sep-28 19:32N 40°47' W 073°55'3 1.0
2016-Sep-28 16:33N 40°50' W 073°58'7 7.2
2016-Sep-28 15:33N 40°43' W 074°01'4 1.4
2016-Sep-28 12:33N 40°40' W 074°04'4 0.9
2016-Sep-28 08:33N 40°38' W 074°09'1 0.1
2016-Sep-28 03:32N 40°38' W 074°10'2 1.6
2016-Sep-28 02:33N 40°40' W 074°09'2 1.6
2016-Sep-28 01:33N 40°38' W 074°10'2 0.9
2016-Sep-27 23:33N 40°38' W 074°12'5 1.2
2016-Sep-27 19:33N 40°42' W 074°09'2 0.4
2016-Sep-27 14:34N 40°40' W 074°09'0 0.0
2016-Sep-27 13:34N 40°40' W 074°09'2 0.7
2016-Sep-27 10:33N 40°39' W 074°07'2 0.2
2016-Sep-27 00:33N 40°40' W 074°09'1 0.3
2016-Sep-26 20:33N 40°38' W 074°10'0 0.0
2016-Sep-26 19:33N 40°38' W 074°10'0 0.0
2016-Sep-26 15:33N 40°38' W 074°10'14 7.2
2016-Sep-26 13:33N 40°50' W 073°58'3 1.7
2016-Sep-26 11:33N 40°46' W 073°57'13 4.2
2016-Sep-26 08:33N 40°38' W 074°10'0 0.0
2016-Sep-26 02:33N 40°38' W 074°10'2 2.1
2016-Sep-26 01:34N 40°40' W 074°08'0 0.3
2016-Sep-26 00:34N 40°40' W 074°08'0 0.0
2016-Sep-25 21:34N 40°40' W 074°08'2 0.6
2016-Sep-25 17:33N 40°38' W 074°10'0 0.0
2016-Sep-25 16:33N 40°38' W 074°10'0 0.0
2016-Sep-25 15:33N 40°38' W 074°10'0 0.0
2016-Sep-25 14:33N 40°38' W 074°10'4 2.0
2016-Sep-25 12:33N 40°35' W 074°13'4 4.0
2016-Sep-25 11:33N 40°39' W 074°11'6 5.9
2016-Sep-25 10:33N 40°39' W 074°03'5 4.8
2016-Sep-25 09:33N 40°38' W 074°09'1 0.7
2016-Sep-25 07:34N 40°40' W 074°09'3 1.0
2016-Sep-25 04:33N 40°40' W 074°05'0 0.0
2016-Sep-25 00:33N 40°40' W 074°05'0 0.0
2016-Sep-24 22:33N 40°40' W 074°05'0 0.0
2016-Sep-24 19:34N 40°40' W 074°05'0 0.0
2016-Sep-24 18:34N 40°40' W 074°05'0 0.0
2016-Sep-24 17:33N 40°40' W 074°05'0 0.0
2016-Sep-24 16:33N 40°40' W 074°05'0 0.0
2016-Sep-24 14:33N 40°40' W 074°05'0 0.0
2016-Sep-24 12:33N 40°40' W 074°05'2 1.1
2016-Sep-24 10:33N 40°40' W 074°02'3 2.9
2016-Sep-24 09:33N 40°42' W 074°00'44 2.2
2016-Sep-23 13:23N 40°59' W 073°07'45 6.6
2016-Sep-23 06:33N 40°41' W 074°01'4 1.8
2016-Sep-23 04:34N 40°39' W 074°05'0 0.4
2016-Sep-23 03:33N 40°39' W 074°06'0 0.0
2016-Sep-23 02:33N 40°39' W 074°06'3 2.6
2016-Sep-23 01:33N 40°41' W 074°08'1 0.7
2016-Sep-23 00:34N 40°40' W 074°08'1 0.6
2016-Sep-22 23:33N 40°40' W 074°09'2 0.5
2016-Sep-22 20:34N 40°38' W 074°10'4 0.5
2016-Sep-22 12:28N 40°35' W 074°13'4 0.5
2016-Sep-22 04:33N 40°38' W 074°10'0 0.2
2016-Sep-22 03:33N 40°38' W 074°10'0 0.0
2016-Sep-22 00:33N 40°38' W 074°10'3 2.9
2016-Sep-21 23:33N 40°36' W 074°12'1 0.9
2016-Sep-21 22:33N 40°37' W 074°12'2 0.8
2016-Sep-21 19:33N 40°38' W 074°10'4 1.4
2016-Sep-21 16:33N 40°39' W 074°04'  
Track history (hours):
 
Tides and Currents Weather Stations Pressure Air Temp Water Temp Dewpoint Dewpoint Depression Visibility Wind Speed Wind Dir Waves Ship Positions

Amy C. Mc Allister

Owner: MC ALLISTER TOWING & TRANSPORTATION INC, NEW YORK, NY. More information available from US FCC via Universal Licensing System and Coast Guard Vessel Documentation Center.

Last reported at 2016-Oct-01 15:33 UTC. Time now 2016-Oct-01 18:56 UTC.
Position N 40°40' W 074°09'.

; draft 4.9 m.

Type: Towing. MMSI: 366995040.

Date/timePositionNaut miles runAvg speedWind from/ knotsBaromVisibWave heightAir tempDewpointWater temp
2016-Oct-01 15:33N 40°40' W 074°09'0 0.0
2016-Oct-01 14:33N 40°40' W 074°09'3 2.8
2016-Oct-01 13:33N 40°38' W 074°12'2 0.2
2016-Oct-01 04:33N 40°38' W 074°10'0 0.0
2016-Oct-01 03:33N 40°38' W 074°10'0 0.0
2016-Oct-01 00:33N 40°38' W 074°10'0 0.0
2016-Sep-30 22:33N 40°38' W 074°10'0 0.0
2016-Sep-30 17:33N 40°38' W 074°10'0 0.0
2016-Sep-30 16:33N 40°38' W 074°10'3 1.4
2016-Sep-30 14:29N 40°36' W 074°12'2 1.8
2016-Sep-30 13:29N 40°38' W 074°12'6 2.2
2016-Sep-30 10:33N 40°40' W 074°04'0 0.0
2016-Sep-30 08:33N 40°40' W 074°04'0 0.0
2016-Sep-30 06:34N 40°40' W 074°04'0 0.0
2016-Sep-30 03:33N 40°40' W 074°04'0 0.0
2016-Sep-30 02:34N 40°40' W 074°04'0 0.1
2016-Sep-29 23:33N 40°40' W 074°05'5 2.6
2016-Sep-29 21:32N 40°38' W 074°11'2 2.1
2016-Sep-29 20:32N 40°39' W 074°09'0 0.1
2016-Sep-29 19:33N 40°39' W 074°09'1 0.4
2016-Sep-29 16:33N 40°38' W 074°10'0 0.0
2016-Sep-29 15:33N 40°38' W 074°10'0 0.0
2016-Sep-29 14:33N 40°38' W 074°10'0 0.0
2016-Sep-29 13:33N 40°38' W 074°10'5 1.0
2016-Sep-29 08:11N 40°34' W 074°13'3 4.7
2016-Sep-29 07:33N 40°37' W 074°12'7 1.1
2016-Sep-29 00:33N 40°39' W 074°03'0 0.1
2016-Sep-28 21:33N 40°40' W 074°04'10 4.8
2016-Sep-28 19:32N 40°47' W 073°55'3 1.0
2016-Sep-28 16:33N 40°50' W 073°58'7 7.2
2016-Sep-28 15:33N 40°43' W 074°01'4 1.4
2016-Sep-28 12:33N 40°40' W 074°04'4 0.9
2016-Sep-28 08:33N 40°38' W 074°09'1 0.1
2016-Sep-28 03:32N 40°38' W 074°10'2 1.6
2016-Sep-28 02:33N 40°40' W 074°09'2 1.6
2016-Sep-28 01:33N 40°38' W 074°10'2 0.9
2016-Sep-27 23:33N 40°38' W 074°12'5 1.2
2016-Sep-27 19:33N 40°42' W 074°09'2 0.4
2016-Sep-27 14:34N 40°40' W 074°09'0 0.0
2016-Sep-27 13:34N 40°40' W 074°09'2 0.7
2016-Sep-27 10:33N 40°39' W 074°07'2 0.2
2016-Sep-27 00:33N 40°40' W 074°09'1 0.3
2016-Sep-26 20:33N 40°38' W 074°10'0 0.0
2016-Sep-26 19:33N 40°38' W 074°10'0 0.0
2016-Sep-26 15:33N 40°38' W 074°10'14 7.2
2016-Sep-26 13:33N 40°50' W 073°58'3 1.7
2016-Sep-26 11:33N 40°46' W 073°57'13 4.2
2016-Sep-26 08:33N 40°38' W 074°10'0 0.0
2016-Sep-26 02:33N 40°38' W 074°10'2 2.1
2016-Sep-26 01:34N 40°40' W 074°08'0 0.3
2016-Sep-26 00:34N 40°40' W 074°08'0 0.0
2016-Sep-25 21:34N 40°40' W 074°08'2 0.6
2016-Sep-25 17:33N 40°38' W 074°10'0 0.0
2016-Sep-25 16:33N 40°38' W 074°10'0 0.0
2016-Sep-25 15:33N 40°38' W 074°10'0 0.0
2016-Sep-25 14:33N 40°38' W 074°10'4 2.0
2016-Sep-25 12:33N 40°35' W 074°13'4 4.0
2016-Sep-25 11:33N 40°39' W 074°11'6 5.9
2016-Sep-25 10:33N 40°39' W 074°03'5 4.8
2016-Sep-25 09:33N 40°38' W 074°09'1 0.7
2016-Sep-25 07:34N 40°40' W 074°09'3 1.0
2016-Sep-25 04:33N 40°40' W 074°05'0 0.0
2016-Sep-25 00:33N 40°40' W 074°05'0 0.0
2016-Sep-24 22:33N 40°40' W 074°05'0 0.0
2016-Sep-24 19:34N 40°40' W 074°05'0 0.0
2016-Sep-24 18:34N 40°40' W 074°05'0 0.0
2016-Sep-24 17:33N 40°40' W 074°05'0 0.0
2016-Sep-24 16:33N 40°40' W 074°05'0 0.0
2016-Sep-24 14:33N 40°40' W 074°05'0 0.0
2016-Sep-24 12:33N 40°40' W 074°05'2 1.1
2016-Sep-24 10:33N 40°40' W 074°02'3 2.9
2016-Sep-24 09:33N 40°42' W 074°00'44 2.2
2016-Sep-23 13:23N 40°59' W 073°07'45 6.6
2016-Sep-23 06:33N 40°41' W 074°01'4 1.8
2016-Sep-23 04:34N 40°39' W 074°05'0 0.4
2016-Sep-23 03:33N 40°39' W 074°06'0 0.0
2016-Sep-23 02:33N 40°39' W 074°06'3 2.6
2016-Sep-23 01:33N 40°41' W 074°08'1 0.7
2016-Sep-23 00:34N 40°40' W 074°08'1 0.6
2016-Sep-22 23:33N 40°40' W 074°09'2 0.5
2016-Sep-22 20:34N 40°38' W 074°10'4 0.5
2016-Sep-22 12:28N 40°35' W 074°13'4 0.5
2016-Sep-22 04:33N 40°38' W 074°10'0 0.2
2016-Sep-22 03:33N 40°38' W 074°10'0 0.0
2016-Sep-22 00:33N 40°38' W 074°10'3 2.9
2016-Sep-21 23:33N 40°36' W 074°12'1 0.9
2016-Sep-21 22:33N 40°37' W 074°12'2 0.8
2016-Sep-21 19:33N 40°38' W 074°10'4 1.4
2016-Sep-21 16:33N 40°39' W 074°04'  

Dump ship's entire track history